Time;durP1;ratioP1;P1;durP2;ratioP2;P2;SDS_P1;SDS_P2;PMS_P1;PMS_P2;Temp;Humidity;BMP_temperature;BMP_pressure;BME280_temperature;BME280_humidity;BME280_pressure;Samples;Min_cycle;Max_cycle;Signal;HPM_P1;HPM_P2
2023/05/22 00:00:17;;;;;;;32.38;20.80;;;;;;;15.55;96.66;101419.44;5400872;22;20032;-62
2023/05/22 00:05:17;;;;;;;32.10;20.50;;;;;;;15.44;97.48;101416.69;5268449;23;21282;-62
2023/05/22 00:07:43;;;;;;;31.60;21.13;;;;;;;15.43;97.21;101423.66;4993120;28;20038;-62
2023/05/22 00:10:08;;;;;;;32.05;20.98;;;;;;;15.48;96.61;101422.00;5158360;22;20104;-62
2023/05/22 00:12:34;;;;;;;31.70;20.55;;;;;;;15.54;96.37;101421.19;5139144;23;20054;-62
2023/05/22 00:22:59;;;;;;;37.45;22.08;;;;;;;15.38;98.07;101414.88;5229747;22;20060;-62
2023/05/22 00:25:25;;;;;;;35.58;21.50;;;;;;;15.32;98.01;101419.16;5155632;23;20069;-62
2023/05/22 00:27:50;;;;;;;35.58;23.50;;;;;;;15.28;99.03;101416.47;4992997;28;20053;-62
2023/05/22 00:30:15;;;;;;;34.33;22.70;;;;;;;15.24;98.86;101414.69;4994760;28;20022;-62
2023/05/22 00:32:41;;;;;;;35.70;23.90;;;;;;;15.23;98.97;101419.91;4993412;28;21090;-62
2023/05/22 00:35:07;;;;;;;40.45;24.77;;;;;;;15.22;99.24;101420.75;5316468;22;20024;-62
2023/05/22 00:37:32;;;;;;;39.45;24.25;;;;;;;15.18;98.61;101408.44;5368015;22;20041;-62
2023/05/22 00:39:57;;;;;;;38.00;24.88;;;;;;;15.20;99.12;101406.75;5123022;23;20593;-62
2023/05/22 00:44:52;;;;;;;38.13;24.35;;;;;;;15.32;97.77;101409.50;5092756;22;1106710;-62
2023/05/22 00:47:17;;;;;;;43.00;24.73;;;;;;;15.29;97.81;101405.13;5150091;23;20532;-62
2023/05/22 00:49:42;;;;;;;38.67;24.52;;;;;;;15.28;98.14;101407.75;5135303;22;20090;-62
2023/05/22 00:52:10;;;;;;;41.80;25.75;;;;;;;15.27;97.49;101405.97;5313097;22;20098;-62
2023/05/22 00:54:35;;;;;;;45.03;26.58;;;;;;;15.16;98.04;101405.81;5374917;22;21250;-62
2023/05/22 00:57:02;;;;;;;43.63;27.15;;;;;;;15.16;98.18;101416.31;5169243;22;20521;-62
2023/05/22 00:59:28;;;;;;;45.72;26.50;;;;;;;15.20;97.72;101414.63;5118847;22;20305;-62
2023/05/22 01:04:24;;;;;;;40.28;26.15;;;;;;;15.24;97.32;101404.16;5122290;22;20065;-62
2023/05/22 01:06:49;;;;;;;42.22;27.33;;;;;;;15.23;96.73;101410.28;5185327;23;21047;-62
2023/05/22 01:09:15;;;;;;;48.03;28.90;;;;;;;15.15;97.31;101408.41;5093516;23;20058;-62
2023/05/22 01:16:53;;;;;;;54.50;30.98;;;;;;;14.97;98.37;101409.91;5448391;22;20033;-62
2023/05/22 01:22:25;;;;;;;54.53;31.95;;;;;;;14.91;98.94;101404.59;5161440;22;20050;-62
2023/05/22 01:25:10;;;;;;;52.55;31.83;;;;;;;14.85;99.61;101400.13;4974252;28;20542;-62
2023/05/22 01:30:23;;;;;;;53.50;31.58;;;;;;;14.71;99.70;101405.16;5022507;22;20065;-62
2023/05/22 01:32:48;;;;;;;55.22;32.80;;;;;;;14.65;100.00;101402.44;5113799;22;20516;-62
2023/05/22 01:42:42;;;;;;;60.08;33.13;;;;;;;14.67;100.00;101397.22;4978256;28;20069;-62
2023/05/22 01:45:09;;;;;;;55.92;32.20;;;;;;;14.66;100.00;101396.34;5162805;22;20054;-62
2023/05/22 01:47:35;;;;;;;61.17;35.03;;;;;;;14.63;100.00;101392.78;5171624;22;20110;-62
2023/05/22 01:50:00;;;;;;;60.20;35.72;;;;;;;14.58;100.00;101398.81;5135126;23;20140;-62
2023/05/22 01:55:12;;;;;;;65.50;36.60;;;;;;;14.47;100.00;101397.75;5196477;22;20029;-62
2023/05/22 01:57:55;;;;;;;63.63;36.70;;;;;;;14.43;100.00;101394.19;5166066;23;20043;-62
2023/05/22 02:00:21;;;;;;;64.53;37.15;;;;;;;14.39;100.00;101391.50;5160425;23;20046;-62
2023/05/22 02:02:49;;;;;;;67.95;36.75;;;;;;;14.36;100.00;101394.94;4999779;28;20041;-62
2023/05/22 02:05:17;;;;;;;66.28;36.50;;;;;;;14.34;100.00;101394.06;4999194;28;20492;-63
2023/05/22 02:07:44;;;;;;;64.07;37.38;;;;;;;14.33;100.00;101400.13;4981561;28;20030;-62
2023/05/22 02:12:40;;;;;;;60.63;36.63;;;;;;;14.30;100.00;101389.59;5258205;22;21194;-64
2023/05/22 02:17:40;;;;;;;64.38;35.97;;;;;;;14.33;100.00;101384.41;5080500;22;21105;-64
2023/05/22 02:20:16;;;;;;;65.07;36.70;;;;;;;14.24;100.00;101394.75;5106994;22;20061;-62
2023/05/22 02:22:43;;;;;;;60.03;36.70;;;;;;;14.20;100.00;101398.16;5145359;22;20058;-62
2023/05/22 02:30:08;;;;;;;64.18;37.25;;;;;;;14.18;100.00;101385.03;5260977;23;20120;-62
2023/05/22 02:32:33;;;;;;;61.35;36.22;;;;;;;14.13;100.00;101376.19;5270850;22;20046;-63
2023/05/22 02:34:58;;;;;;;56.83;34.63;;;;;;;14.14;100.00;101377.09;5174465;22;20059;-63
2023/05/22 02:39:57;;;;;;;55.63;35.45;;;;;;;14.00;100.00;101375.09;5162425;23;20058;-64
2023/05/22 02:44:54;;;;;;;58.45;35.58;;;;;;;14.01;100.00;101376.88;5172601;23;20054;-64
2023/05/22 02:47:19;;;;;;;59.13;37.00;;;;;;;14.05;100.00;101370.84;4997078;28;20050;-64
2023/05/22 02:49:45;;;;;;;56.65;35.25;;;;;;;14.18;100.00;101376.28;4997329;28;20022;-64
2023/05/22 02:52:11;;;;;;;61.95;35.85;;;;;;;14.19;100.00;101364.94;5305749;23;20664;-62
2023/05/22 02:54:36;;;;;;;63.42;35.03;;;;;;;14.15;100.00;101366.66;5262296;22;20021;-62
2023/05/22 02:59:37;;;;;;;57.67;34.60;;;;;;;14.06;100.00;101363.84;5012763;23;20053;-62
2023/05/22 03:02:04;;;;;;;58.47;35.25;;;;;;;14.02;100.00;101367.25;4991196;28;20441;-63
2023/05/22 03:04:29;;;;;;;53.63;34.35;;;;;;;13.99;100.00;101364.59;5174120;22;20093;-64
2023/05/22 03:06:55;;;;;;;54.75;33.83;;;;;;;13.97;100.00;101368.94;5192239;22;20137;-63
2023/05/22 03:14:25;;;;;;;52.78;33.90;;;;;;;13.74;100.00;101366.75;5195048;22;20477;-65
2023/05/22 03:21:53;;;;;;;48.95;33.20;;;;;;;13.62;100.00;101356.06;4977512;28;20370;-63
2023/05/22 03:24:18;;;;;;;50.22;32.53;;;;;;;13.57;100.00;101359.47;5287009;22;20117;-63
2023/05/22 03:26:43;;;;;;;47.95;31.88;;;;;;;13.51;100.00;101358.47;4995019;28;20037;-63
2023/05/22 03:29:09;;;;;;;52.88;33.08;;;;;;;13.49;100.00;101355.81;4993436;28;20017;-63
2023/05/22 03:31:35;;;;;;;46.83;31.88;;;;;;;13.43;100.00;101347.84;4992561;28;20512;-63
2023/05/22 03:34:00;;;;;;;50.17;32.63;;;;;;;13.39;100.00;101353.88;5080549;23;20105;-65
2023/05/22 03:36:26;;;;;;;48.80;33.95;;;;;;;13.35;100.00;101360.78;5140325;22;20041;-62
2023/05/22 03:38:51;;;;;;;46.55;31.73;;;;;;;13.30;100.00;101359.75;5275833;22;20108;-64
2023/05/22 03:41:17;;;;;;;49.90;32.67;;;;;;;13.30;100.00;101365.00;4992607;28;20026;-64
2023/05/22 03:46:17;;;;;;;44.58;30.58;;;;;;;13.28;100.00;101366.72;5086713;23;20337;-63
2023/05/22 03:48:43;;;;;;;45.45;31.25;;;;;;;13.29;100.00;101362.34;5247604;22;20209;-62
2023/05/22 03:56:04;;;;;;;45.17;31.35;;;;;;;13.22;100.00;101361.34;4977089;28;20588;-65
2023/05/22 03:58:29;;;;;;;51.67;32.05;;;;;;;13.17;100.00;101348.16;4978165;28;20027;-65
2023/05/22 04:00:59;;;;;;;46.38;30.73;;;;;;;13.13;100.00;101350.69;5159394;22;20059;-64
2023/05/22 04:03:25;;;;;;;46.55;30.85;;;;;;;13.10;100.00;101345.38;5060326;22;20522;-62
2023/05/22 04:05:50;;;;;;;47.65;32.65;;;;;;;13.03;100.00;101350.50;5319316;23;20029;-63
2023/05/22 04:08:16;;;;;;;46.38;31.23;;;;;;;12.99;100.00;101353.00;5176476;22;21088;-63
2023/05/22 04:10:45;;;;;;;44.03;32.13;;;;;;;12.99;100.00;101353.88;5080706;23;20017;-63
2023/05/22 04:15:45;;;;;;;48.13;30.73;;;;;;;13.00;100.00;101350.41;5186556;22;21291;-65
2023/05/22 04:20:36;;;;;;;46.25;31.77;;;;;;;13.00;100.00;101370.47;5199953;22;20098;-65
2023/05/22 04:23:01;;;;;;;44.00;30.15;;;;;;;12.96;100.00;101364.28;5321169;22;20065;-64
2023/05/22 04:27:56;;;;;;;45.63;30.05;;;;;;;12.88;100.00;101371.94;5101958;22;20025;-63
2023/05/22 04:30:24;;;;;;;48.50;30.83;;;;;;;12.89;100.00;101367.63;5171161;22;20054;-63
2023/05/22 04:38:00;;;;;;;48.40;32.38;;;;;;;12.94;100.00;101391.25;5142846;23;20033;-62
2023/05/22 04:40:28;;;;;;;46.15;30.88;;;;;;;13.03;100.00;101391.44;5370162;22;20031;-63
2023/05/22 04:42:53;;;;;;;45.65;30.80;;;;;;;13.07;100.00;101389.81;5025429;23;20040;-64
2023/05/22 04:45:20;;;;;;;45.47;31.00;;;;;;;13.10;100.00;101389.88;5267193;23;20020;-63
2023/05/22 04:50:15;;;;;;;41.45;29.92;;;;;;;13.15;100.00;101396.06;5048400;23;20433;-63
2023/05/22 04:52:40;;;;;;;45.00;30.52;;;;;;;13.19;100.00;101392.66;5336568;22;20062;-63
2023/05/22 04:55:07;;;;;;;42.75;28.60;;;;;;;13.25;100.00;101397.16;5121860;23;20036;-65
2023/05/22 04:57:32;;;;;;;39.97;28.70;;;;;;;13.27;100.00;101385.00;5264215;22;20067;-64
2023/05/22 04:59:57;;;;;;;42.15;28.38;;;;;;;13.26;100.00;101397.19;4968670;28;20045;-65
2023/05/22 05:02:23;;;;;;;39.50;28.92;;;;;;;13.24;100.00;101398.91;5063869;22;20032;-63
2023/05/22 05:07:17;;;;;;;44.35;29.15;;;;;;;13.22;100.00;101400.59;5151228;22;20104;-62
2023/05/22 05:09:42;;;;;;;46.22;30.10;;;;;;;13.18;100.00;101404.88;5099903;23;20121;-62
2023/05/22 05:17:24;;;;;;;44.60;31.08;;;;;;;13.18;100.00;101409.25;5399674;22;1073347;31
2023/05/22 05:19:50;;;;;;;47.60;30.05;;;;;;;13.19;100.00;101411.91;4936350;28;20047;-63
2023/05/22 05:22:15;;;;;;;50.45;31.05;;;;;;;13.19;100.00;101413.59;5145767;23;20062;-65
2023/05/22 05:24:40;;;;;;;49.70;31.30;;;;;;;13.18;100.00;101406.63;5337345;22;20550;-63
2023/05/22 05:27:06;;;;;;;51.45;32.42;;;;;;;13.21;100.00;101412.78;5340824;22;20025;-62
2023/05/22 05:32:02;;;;;;;54.10;33.30;;;;;;;13.29;100.00;101415.56;5105656;22;20059;-65
2023/05/22 05:34:28;;;;;;;51.13;33.17;;;;;;;13.33;100.00;101411.31;4974172;28;20034;-65
2023/05/22 05:41:52;;;;;;;50.58;32.90;;;;;;;13.38;100.00;101396.59;5367236;22;20029;-65
2023/05/22 05:44:17;;;;;;;53.30;32.50;;;;;;;13.42;100.00;101410.66;5208257;23;20046;-63
2023/05/22 05:46:42;;;;;;;52.92;33.15;;;;;;;13.38;100.00;101397.50;5131024;22;20074;-63
2023/05/22 05:49:09;;;;;;;55.17;35.28;;;;;;;13.44;100.00;101403.69;4994263;28;20514;-63
2023/05/22 05:51:35;;;;;;;57.10;34.95;;;;;;;13.48;100.00;101405.53;5173776;23;20082;-64
2023/05/22 05:54:00;;;;;;;54.90;33.78;;;;;;;13.52;100.00;101409.97;5194492;23;20050;-63
2023/05/22 05:58:54;;;;;;;55.72;34.70;;;;;;;13.61;100.00;101410.16;5085637;23;20589;-65
2023/05/22 06:01:23;;;;;;;70.63;36.42;;;;;;;13.65;100.00;101413.72;5160513;22;20066;-63
2023/05/22 06:03:48;;;;;;;71.20;38.03;;;;;;;13.64;100.00;101412.81;5128032;23;20057;-63
2023/05/22 06:06:14;;;;;;;62.63;36.65;;;;;;;13.69;100.00;101416.44;5251391;22;20124;-65
2023/05/22 06:11:04;;;;;;;61.60;36.20;;;;;;;13.80;100.00;101423.63;5355190;22;20073;-63
2023/05/22 06:13:30;;;;;;;69.60;38.70;;;;;;;13.84;100.00;101409.75;5165767;22;20077;-63
2023/05/22 06:21:05;;;;;;;68.65;37.55;;;;;;;14.00;100.00;101422.25;5122813;22;20454;-64
2023/05/22 06:23:31;;;;;;;69.75;38.95;;;;;;;14.05;100.00;101425.88;5194488;22;20044;-63
2023/05/22 06:25:56;;;;;;;75.57;41.22;;;;;;;14.07;100.00;101418.91;5099741;23;20674;-63
2023/05/22 06:28:21;;;;;;;73.85;40.90;;;;;;;14.11;100.00;101427.72;5121677;22;20446;-63
2023/05/22 06:30:47;;;;;;;69.07;37.95;;;;;;;14.19;100.00;101430.47;4990627;28;20025;-63
2023/05/22 06:38:32;;;;;;;77.80;42.65;;;;;;;14.31;100.00;101432.41;5168599;23;20054;-63
2023/05/22 06:43:26;;;;;;;126.13;73.55;;;;;;;14.47;100.00;101441.44;5216243;22;20054;-63
2023/05/22 06:45:51;;;;;;;76.38;41.85;;;;;;;14.49;100.00;101445.84;5091074;23;20089;-63
2023/05/22 06:48:17;;;;;;;73.35;42.17;;;;;;;14.51;100.00;101446.78;5267685;22;20763;-64
2023/05/22 06:53:20;;;;;;;79.15;42.17;;;;;;;14.63;100.00;101445.22;4994236;28;20545;-65
2023/05/22 06:55:45;;;;;;;73.07;40.92;;;;;;;14.66;100.00;101453.19;4994186;28;20027;-65
2023/05/22 06:58:10;;;;;;;82.68;42.20;;;;;;;14.70;100.00;101455.88;5319876;22;20397;-64
2023/05/22 07:00:35;;;;;;;86.47;42.17;;;;;;;14.71;100.00;101455.00;5249525;22;21629;-64
2023/05/22 07:03:01;;;;;;;82.07;44.20;;;;;;;14.70;100.00;101461.13;5160686;23;20085;-65
2023/05/22 07:13:06;;;;;;;84.70;44.20;;;;;;;14.85;100.00;101463.09;5133588;22;20588;-63
2023/05/22 07:15:31;;;;;;;88.45;45.10;;;;;;;14.87;100.00;101465.75;5147960;22;20032;-63
2023/05/22 07:20:31;;;;;;;95.63;49.67;;;;;;;14.99;100.00;101465.94;5108205;22;20061;-63
2023/05/22 07:22:57;;;;;;;101.53;51.15;;;;;;;15.01;100.00;101469.47;5155579;22;20050;-64
2023/05/22 07:25:22;;;;;;;100.75;49.60;;;;;;;15.08;100.00;101471.31;5305175;22;20103;-63
2023/05/22 07:27:47;;;;;;;104.20;49.13;;;;;;;15.09;100.00;101473.09;5199977;22;20072;-64
2023/05/22 07:30:13;;;;;;;106.50;53.40;;;;;;;15.06;100.00;101473.06;5240695;22;20025;-64
2023/05/22 07:32:38;;;;;;;107.22;51.88;;;;;;;15.15;100.00;101474.94;4994760;28;20512;-63
2023/05/22 07:35:04;;;;;;;123.68;54.20;;;;;;;15.21;100.00;101477.66;5116557;22;20062;-64
2023/05/22 07:37:30;;;;;;;112.85;53.50;;;;;;;15.21;100.00;101476.78;5213517;23;20045;-64
2023/05/22 07:39:58;;;;;;;119.68;55.92;;;;;;;15.30;100.00;101474.25;5402003;22;20033;-64
2023/05/22 07:44:55;;;;;;;115.70;56.47;;;;;;;15.36;100.00;101484.84;5202849;23;20054;-64
2023/05/22 07:47:21;;;;;;;125.20;55.40;;;;;;;15.42;100.00;101478.81;5003129;28;20018;-63
2023/05/22 07:52:22;;;;;;;118.57;54.75;;;;;;;15.45;100.00;101481.47;5376242;22;20998;-64
2023/05/22 07:57:23;;;;;;;133.07;58.33;;;;;;;15.54;100.00;101491.22;5483901;22;20032;-64
2023/05/22 07:59:49;;;;;;;127.45;57.90;;;;;;;15.59;100.00;101487.78;5193589;23;20105;-64
2023/05/22 08:04:50;;;;;;;128.85;57.78;;;;;;;15.70;100.00;101485.31;5230583;22;20033;-64
2023/05/22 08:09:45;;;;;;;;;;;;;;;15.80;100.00;101491.59;5179467;22;20021;-64
2023/05/22 08:12:11;;;;;;;127.82;53.95;;;;;;;15.78;100.00;101488.94;5211376;22;19914;-64
2023/05/22 08:17:11;;;;;;;133.85;57.55;;;;;;;15.79;100.00;101484.59;5281031;22;20021;-66
2023/05/22 08:24:47;;;;;;;137.90;59.45;;;;;;;15.98;100.00;101478.66;5224603;22;20061;-68
2023/05/22 08:27:13;;;;;;;139.70;56.00;;;;;;;16.05;100.00;101479.63;5118740;23;20112;-67
2023/05/22 08:29:38;;;;;;;139.50;58.72;;;;;;;16.05;100.00;101486.63;5467573;22;20084;-69
2023/05/22 08:34:36;;;;;;;143.23;61.33;;;;;;;16.18;100.00;101480.66;5060270;23;20054;-66
2023/05/22 08:39:31;;;;;;;145.75;61.05;;;;;;;16.40;100.00;101481.75;5263047;23;20055;-68
2023/05/22 08:41:56;;;;;;;146.23;58.53;;;;;;;16.50;100.00;101475.69;5379115;22;20075;-67
2023/05/22 08:44:23;;;;;;;161.93;62.03;;;;;;;16.63;100.00;101481.09;5285803;22;20111;-68
2023/05/22 08:49:21;;;;;;;150.30;61.25;;;;;;;16.90;100.00;101479.56;5184940;23;20048;-68
2023/05/22 08:59:22;;;;;;;156.10;62.65;;;;;;;17.36;99.76;101479.88;5137611;22;20065;-67
2023/05/22 09:07:16;;;;;;;152.98;62.63;;;;;;;17.65;97.00;101479.16;4947143;28;20114;-68
2023/05/22 09:09:41;;;;;;;156.23;63.90;;;;;;;17.63;97.59;101475.63;5108880;22;20868;-67
2023/05/22 09:12:08;;;;;;;195.70;67.85;;;;;;;17.68;97.49;101476.53;4975178;28;20033;-67
2023/05/22 09:14:41;;;;;;;197.77;65.22;;;;;;;17.85;96.55;101473.97;5108102;23;20028;-68
2023/05/22 09:19:36;;;;;;;197.88;65.53;;;;;;;18.01;97.83;101473.16;5061283;22;20458;-67
2023/05/22 09:22:10;;;;;;;169.90;62.35;;;;;;;18.19;95.55;101467.06;5028012;22;1076289;-68
2023/05/22 09:32:20;;;;;;;169.45;58.17;;;;;;;18.52;91.30;101477.66;5269784;22;20070;-69
2023/05/22 09:35:21;;;;;;;178.52;60.95;;;;;;;18.56;93.37;101472.38;5069081;23;20016;-96
2023/05/22 09:38:31;;;;;;;;;;;;;;;;;;;;;
2023/05/22 09:41:05;;;;;;;177.68;59.70;;;;;;;18.96;91.46;101468.00;5012927;28;20082;-96
2023/05/22 09:43:46;;;;;;;164.93;58.35;;;;;;;19.08;89.37;101465.34;4996259;28;20046;-96
2023/05/22 09:46:37;;;;;;;152.25;56.45;;;;;;;19.10;89.43;101469.75;4980762;28;20033;-96
2023/05/22 09:49:25;;;;;;;;;;;;;;;;;;;;;
2023/05/22 09:58:18;;;;;;;145.77;54.80;;;;;;;19.44;87.16;101459.09;5003313;28;20093;-96
2023/05/22 10:01:42;;;;;;;157.07;56.38;;;;;;;19.65;88.59;101449.31;4997291;28;20214;-96
2023/05/22 10:04:19;;;;;;;154.48;56.00;;;;;;;20.03;88.48;101452.66;4973003;28;20038;-96
2023/05/22 10:06:55;;;;;;;147.75;53.80;;;;;;;20.23;86.81;101460.50;4988763;28;20041;-97
2023/05/22 10:09:39;;;;;;;;;;;;;;;;;;;;;
2023/05/22 10:12:25;;;;;;;;;;;;;;;;;;;;;
2023/05/22 10:15:25;;;;;;;143.45;54.25;;;;;;;20.31;85.34;101466.63;5014784;28;20105;-96
2023/05/22 10:18:26;;;;;;;137.70;54.92;;;;;;;20.44;85.36;101463.00;5002033;28;20022;-96
2023/05/22 10:21:05;;;;;;;;;;;;;;;;;;;;;
2023/05/22 10:24:42;;;;;;;;;;;;;;;;;;;;;
2023/05/22 10:29:54;;;;;;;130.07;52.38;;;;;;;20.89;83.03;101459.13;5154796;22;20300;-70
2023/05/22 10:35:37;;;;;;;124.20;52.03;;;;;;;20.91;80.99;101459.97;4784606;22;20062;-96
2023/05/22 10:38:08;;;;;;;118.13;50.10;;;;;;;20.77;79.63;101457.44;4999457;28;20034;-96
2023/05/22 10:40:49;;;;;;;;;;;;;;;;;;;;;
2023/05/22 10:43:31;;;;;;;124.28;51.33;;;;;;;21.30;82.25;101453.38;5012354;28;20158;-96
2023/05/22 10:46:13;;;;;;;118.72;51.22;;;;;;;21.27;80.28;101449.91;4994361;28;20057;-95
2023/05/22 10:48:51;;;;;;;122.20;51.10;;;;;;;21.12;79.72;101449.16;4990240;28;20033;-96
2023/05/22 10:51:34;;;;;;;109.22;49.78;;;;;;;21.22;81.03;101449.97;4994256;28;20034;-96
2023/05/22 10:54:04;;;;;;;115.30;48.75;;;;;;;21.43;79.96;101445.31;4992653;28;20049;-96
2023/05/22 10:57:15;;;;;;;109.03;46.92;;;;;;;21.47;80.17;101439.06;4991555;28;20026;-96
2023/05/22 10:59:46;;;;;;;107.28;47.13;;;;;;;21.44;80.34;101442.63;4995672;28;20735;-96
2023/05/22 11:02:36;;;;;;;106.70;48.97;;;;;;;21.56;79.30;101443.41;4988218;28;20034;-96
2023/05/22 11:05:20;;;;;;;111.05;49.28;;;;;;;21.74;79.08;101440.53;4989900;28;20049;-96
2023/05/22 11:08:10;;;;;;;105.00;49.38;;;;;;;21.78;77.06;101438.69;4990896;28;20100;-96
2023/05/22 11:10:59;;;;;;;113.90;48.95;;;;;;;21.99;79.57;101435.75;4992450;28;20463;-96
2023/05/22 11:18:41;;;;;;;95.72;47.42;;;;;;;21.68;74.97;101440.59;5494788;22;20026;-66
2023/05/22 11:21:09;;;;;;;97.05;46.92;;;;;;;21.65;79.10;101430.91;5096893;22;20071;-66
2023/05/22 11:23:44;;;;;;;97.00;46.83;;;;;;;21.93;78.38;101427.88;5175463;22;20073;-66
2023/05/22 11:31:13;;;;;;;87.70;43.17;;;;;;;22.52;72.79;101427.88;5313977;22;20058;-67
2023/05/22 11:38:43;;;;;;;83.22;43.38;;;;;;;22.92;75.42;101431.59;5525863;22;20036;-66
2023/05/22 11:41:12;;;;;;;87.18;43.85;;;;;;;22.99;70.15;101430.59;5208678;23;20029;-66
2023/05/22 11:43:40;;;;;;;87.60;44.72;;;;;;;23.02;69.51;101433.19;5382872;22;20058;-66
2023/05/22 11:48:39;;;;;;;82.18;41.47;;;;;;;23.22;70.19;101429.31;5330815;23;20272;-66
2023/05/22 11:51:05;;;;;;;81.20;39.70;;;;;;;23.20;73.77;101421.38;4990026;28;20041;-66
2023/05/22 11:53:31;;;;;;;75.72;42.38;;;;;;;23.34;71.43;101423.72;5234889;22;20058;-65
2023/05/22 12:06:12;;;;;;;80.72;43.72;;;;;;;23.34;71.56;101413.09;5112455;22;20020;-65
2023/05/22 12:08:37;;;;;;;81.35;43.63;;;;;;;23.20;69.64;101413.38;5416840;22;20057;-65
2023/05/22 12:11:04;;;;;;;77.72;42.60;;;;;;;23.15;72.81;101420.56;5262405;22;20135;-65
2023/05/22 12:15:59;;;;;;;72.65;42.53;;;;;;;23.59;70.92;101409.91;4976540;28;20050;-64
2023/05/22 12:20:56;;;;;;;72.63;41.33;;;;;;;23.82;68.59;101400.56;5358126;23;20052;-65
2023/05/22 12:28:05;;;;;;;75.25;41.80;;;;;;;23.55;69.84;101422.41;5006105;28;20065;-96
2023/05/22 12:30:39;;;;;;;80.30;43.05;;;;;;;23.32;70.44;101406.94;5029056;23;20047;-66
2023/05/22 12:36:02;;;;;;;;;;;;;;;;;;;;;
2023/05/22 12:39:21;;;;;;;;;;;;;;;;;;;;;
2023/05/22 12:45:23;;;;;;;63.97;37.80;;;;;;;23.46;71.37;101403.09;4968793;22;20077;-64
2023/05/22 12:48:03;;;;;;;73.10;41.10;;;;;;;23.66;67.63;101403.53;5007037;22;20045;-96
2023/05/22 12:50:30;;;;;;;65.75;36.92;;;;;;;23.85;69.29;101398.69;4977034;28;20484;-96
2023/05/22 12:52:55;;;;;;;73.47;41.25;;;;;;;23.96;67.09;101401.16;4962634;28;20475;-95
2023/05/22 12:55:24;;;;;;;64.82;38.30;;;;;;;24.03;65.23;101397.44;4972402;28;20118;-96
2023/05/22 12:57:49;;;;;;;69.13;39.05;;;;;;;23.97;67.08;101397.59;4974353;28;20044;-95
2023/05/22 13:00:15;;;;;;;63.03;39.53;;;;;;;24.01;69.59;101390.38;4954013;28;20945;-95
2023/05/22 13:02:43;;;;;;;62.60;37.95;;;;;;;24.23;67.83;101396.06;4949253;28;20041;-96
2023/05/22 13:05:11;;;;;;;62.97;39.90;;;;;;;24.34;66.74;101391.34;4955222;28;20582;-95
2023/05/22 13:07:36;;;;;;;59.88;39.05;;;;;;;24.29;64.54;101398.59;4957021;28;20027;-95
2023/05/22 13:10:03;;;;;;;65.38;39.15;;;;;;;24.21;64.77;101396.09;4957966;28;20034;-94
2023/05/22 13:12:32;;;;;;;62.58;38.33;;;;;;;24.13;66.83;101398.94;4954358;28;21406;-95
2023/05/22 13:15:00;;;;;;;;;;;;;;;24.16;65.26;101395.34;4956416;28;20059;-96
2023/05/22 13:17:29;;;;;;;59.33;36.83;;;;;;;23.99;65.98;101385.09;4957831;28;19918;-95
2023/05/22 13:19:55;;;;;;;64.40;38.00;;;;;;;24.03;65.13;101393.88;4961924;28;20039;-94
2023/05/22 13:22:22;;;;;;;56.83;35.42;;;;;;;24.12;68.61;101397.19;4964285;28;20126;-95
2023/05/22 13:24:47;;;;;;;62.55;40.15;;;;;;;24.19;65.80;101399.69;4957802;28;20030;-95
2023/05/22 13:27:15;;;;;;;63.67;39.15;;;;;;;23.90;65.95;101395.97;4959547;28;20404;-96
2023/05/22 13:29:44;;;;;;;62.72;37.65;;;;;;;23.64;66.79;101392.06;4968681;28;20725;-94
2023/05/22 13:32:12;;;;;;;61.75;38.25;;;;;;;23.71;65.71;101385.72;4968488;28;20026;-95
2023/05/22 13:34:37;;;;;;;57.87;37.03;;;;;;;23.81;67.48;101386.38;4954223;28;20054;-95
2023/05/22 13:37:02;;;;;;;57.60;37.42;;;;;;;23.75;66.58;101387.41;4954103;28;21038;-96
2023/05/22 13:39:28;;;;;;;56.67;37.00;;;;;;;23.69;67.26;101390.16;4954319;28;20030;-94
2023/05/22 13:41:53;;;;;;;61.17;35.97;;;;;;;23.86;68.52;101400.47;4970509;28;20094;-94
2023/05/22 13:44:22;;;;;;;56.65;35.38;;;;;;;24.05;67.84;101398.25;4968104;28;20077;-94
2023/05/22 13:46:47;;;;;;;61.80;36.42;;;;;;;24.12;66.78;101399.00;4970181;28;20038;-94
2023/05/22 13:49:15;;;;;;;60.00;35.88;;;;;;;24.03;64.40;101392.09;4948508;28;20318;-94
2023/05/22 13:51:40;;;;;;;57.40;35.75;;;;;;;23.92;66.37;101396.81;4949216;28;20109;-94
2023/05/22 13:54:06;;;;;;;60.75;35.80;;;;;;;23.96;66.98;101401.16;4951972;28;20114;-94
2023/05/22 13:56:31;;;;;;;58.42;37.00;;;;;;;23.97;66.20;101397.59;4947249;28;21460;-94
2023/05/22 13:58:57;;;;;;;51.55;34.33;;;;;;;24.02;65.66;101401.00;4949416;28;20027;-96
2023/05/22 14:01:22;;;;;;;68.93;37.42;;;;;;;24.11;66.04;101403.47;4943486;28;20213;-95
2023/05/22 14:03:48;;;;;;;59.47;35.70;;;;;;;24.21;66.51;101400.56;4947873;28;20035;-94
2023/05/22 14:06:13;;;;;;;55.42;34.85;;;;;;;24.24;64.98;101396.00;4950575;28;20476;-95
2023/05/22 14:08:39;;;;;;;57.67;34.38;;;;;;;24.16;63.91;101407.75;4949076;28;20508;-95
2023/05/22 14:11:04;;;;;;;55.88;35.95;;;;;;;23.96;65.30;101398.47;4946602;28;20114;-95
2023/05/22 14:13:30;;;;;;;55.80;34.95;;;;;;;23.99;66.06;101403.72;4945608;28;20065;-94
2023/05/22 14:15:55;;;;;;;55.00;35.58;;;;;;;24.04;65.20;101407.16;4940624;28;20031;-94
2023/05/22 14:18:21;;;;;;;59.72;37.72;;;;;;;23.88;66.26;101404.00;4939407;28;20023;-95
2023/05/22 14:20:46;;;;;;;62.80;38.92;;;;;;;23.69;66.72;101408.78;4946318;28;20027;-94
2023/05/22 14:23:12;;;;;;;56.83;36.15;;;;;;;23.60;68.86;101411.66;4946194;28;20038;-96
2023/05/22 14:25:44;;;;;;;68.78;37.83;;;;;;;23.66;67.50;101416.84;4946635;28;20028;-96
2023/05/22 14:28:15;;;;;;;59.28;37.17;;;;;;;23.68;67.74;101417.72;4951480;28;20110;-96
2023/05/22 14:30:40;;;;;;;59.65;36.53;;;;;;;23.77;67.67;101419.28;4953463;28;20031;-96
2023/05/22 14:33:06;;;;;;;61.25;36.78;;;;;;;23.64;65.45;101410.69;4948470;28;20544;-96
2023/05/22 14:35:31;;;;;;;64.53;38.22;;;;;;;23.46;69.04;101408.44;4952653;28;20032;-95
2023/05/22 14:37:57;;;;;;;68.65;39.20;;;;;;;23.35;68.53;101416.66;4950673;28;20095;-96
2023/05/22 14:40:22;;;;;;;63.58;36.60;;;;;;;23.35;67.58;101414.84;4950906;28;20059;-94
2023/05/22 14:42:48;;;;;;;64.03;39.58;;;;;;;23.29;67.47;101409.66;4950596;28;20015;-95
2023/05/22 14:45:13;;;;;;;70.00;38.60;;;;;;;23.28;68.04;101413.22;4949042;28;20063;-96
2023/05/22 14:47:42;;;;;;;69.53;38.13;;;;;;;23.19;69.20;101416.09;4950000;28;21088;-96
2023/05/22 14:50:10;;;;;;;70.55;41.83;;;;;;;23.03;68.92;101423.44;4952557;28;20038;-96
2023/05/22 14:52:36;;;;;;;67.40;39.90;;;;;;;22.86;69.95;101424.63;4949988;28;20035;-96
2023/05/22 14:55:02;;;;;;;72.35;40.45;;;;;;;22.78;69.47;101418.56;4945373;28;20361;-95
2023/05/22 15:00:05;;;;;;;80.22;43.38;;;;;;;22.40;69.93;101415.69;4817730;26;20043;-94
2023/05/22 15:02:30;;;;;;;74.32;42.28;;;;;;;22.33;71.67;101429.97;4972969;28;20109;-95
2023/05/22 15:05:00;;;;;;;67.18;39.10;;;;;;;22.27;71.86;101434.44;4988891;28;20022;-95
2023/05/22 15:07:26;;;;;;;68.97;37.25;;;;;;;22.09;72.26;101432.94;4972728;28;20030;-94
2023/05/22 15:09:52;;;;;;;72.53;39.33;;;;;;;21.91;73.43;101428.78;4974541;28;20471;-95
2023/05/22 15:12:17;;;;;;;67.22;35.85;;;;;;;21.89;72.25;101432.34;4972419;28;20030;-94
2023/05/22 15:14:43;;;;;;;60.80;33.25;;;;;;;21.84;73.40;101441.25;4970071;28;20022;-95
2023/05/22 15:17:08;;;;;;;63.70;34.13;;;;;;;21.81;75.32;101438.66;4971459;28;20018;-95
2023/05/22 15:19:34;;;;;;;57.63;31.75;;;;;;;21.79;73.96;101435.16;4971342;28;20492;-95
2023/05/22 15:21:59;;;;;;;55.17;30.00;;;;;;;21.81;71.59;101441.31;4975873;28;20408;-94
2023/05/22 15:24:25;;;;;;;56.08;29.80;;;;;;;21.79;73.63;101441.31;4970327;28;21478;-95
2023/05/22 15:26:50;;;;;;;58.80;28.80;;;;;;;21.83;72.70;101432.44;4970375;28;20053;-95